Time;durP1;ratioP1;P1;durP2;ratioP2;P2;SDS_P1;SDS_P2;PMS_P1;PMS_P2;Temp;Humidity;BMP_temperature;BMP_pressure;BME280_temperature;BME280_humidity;BME280_pressure;Samples;Min_cycle;Max_cycle;Signal;HPM_P1;HPM_P2
2022/04/21 07:21:09;;;;;;;5.43;3.60;;;13.60;75.20;;;;;;6224546;22;20016;-87
2022/04/21 07:23:36;;;;;;;6.85;3.83;;;13.60;75.30;;;;;;6156015;23;20098;-88
2022/04/21 07:26:02;;;;;;;3.88;3.13;;;13.60;75.40;;;;;;6154747;23;20080;-89
2022/04/21 07:28:28;;;;;;;7.45;3.95;;;13.60;75.30;;;;;;6154544;23;20008;-89
2022/04/21 07:30:54;;;;;;;4.72;3.97;;;13.60;80.50;;;;;;6129118;23;20516;-89
2022/04/21 07:33:19;;;;;;;8.45;5.55;;;13.60;81.20;;;;;;6128760;23;20081;-87
2022/04/21 07:35:45;;;;;;;7.28;4.50;;;13.60;82.10;;;;;;6154512;23;20001;-89
2022/04/21 07:38:11;;;;;;;7.20;4.55;;;13.60;82.40;;;;;;6154711;23;20449;-90
2022/04/21 07:40:38;;;;;;;6.53;5.00;;;13.60;83.50;;;;;;6154456;23;20013;-89
2022/04/21 07:43:08;;;;;;;10.50;5.03;;;13.60;83.10;;;;;;6154423;23;20377;-89
2022/04/21 07:45:44;;;;;;;7.68;5.50;;;13.60;84.00;;;;;;6128331;23;20010;-88
2022/04/21 07:48:10;;;;;;;14.00;5.50;;;13.60;83.70;;;;;;6154904;23;20004;-89
2022/04/21 07:50:36;;;;;;;6.15;5.22;;;13.70;83.40;;;;;;6154736;23;20005;-90
2022/04/21 07:53:14;;;;;;;11.43;6.40;;;13.70;84.00;;;;;;6128141;23;20010;-87
2022/04/21 07:55:45;;;;;;;6.15;5.47;;;13.70;83.50;;;;;;6128264;23;20092;-88
2022/04/21 07:58:12;;;;;;;13.10;6.28;;;13.70;83.80;;;;;;6154479;23;20002;-89
2022/04/21 08:00:39;;;;;;;18.63;6.82;;;13.80;83.60;;;;;;6154112;23;20025;-87
2022/04/21 08:03:07;;;;;;;18.05;6.22;;;13.80;84.20;;;;;;6154026;23;20024;-88
2022/04/21 08:05:33;;;;;;;7.30;5.93;;;13.80;83.10;;;;;;6154387;23;20428;-88
2022/04/21 08:07:59;;;;;;;11.63;5.75;;;13.70;82.70;;;;;;6154446;23;20334;-89
2022/04/21 08:10:29;;;;;;;9.55;6.32;;;13.80;83.30;;;;;;6154759;23;20172;-87
2022/04/21 08:12:58;;;;;;;14.18;5.28;;;13.80;82.70;;;;;;6154759;23;20449;-89
2022/04/21 08:15:26;;;;;;;12.95;6.10;;;13.90;83.90;;;;;;6154607;23;20006;-88
2022/04/21 08:17:54;;;;;;;7.95;6.05;;;13.90;81.90;;;;;;6128414;23;20005;-88
2022/04/21 08:20:20;;;;;;;10.63;6.88;;;14.00;82.90;;;;;;6155336;23;20504;-87
2022/04/21 08:22:46;;;;;;;9.85;6.47;;;14.10;82.10;;;;;;6172767;23;20088;-87
2022/04/21 08:33:29;;;;;;;10.73;6.32;;;14.10;79.90;;;;;;6186588;23;20016;-90
2022/04/21 08:35:58;;;;;;;7.90;5.40;;;14.20;79.90;;;;;;6187211;23;20021;-89
2022/04/21 08:38:28;;;;;;;8.40;5.25;;;14.30;79.10;;;;;;6187232;23;20001;-88
2022/04/21 08:40:58;;;;;;;8.13;5.72;;;14.50;79.60;;;;;;6160931;23;20103;-89
2022/04/21 08:43:27;;;;;;;10.02;5.50;;;14.40;77.00;;;;;;6187220;23;19998;-89
2022/04/21 08:45:53;;;;;;;6.40;4.93;;;14.50;77.70;;;;;;6160292;23;19998;-88
2022/04/21 08:48:22;;;;;;;5.22;4.28;;;14.60;77.80;;;;;;6186214;23;20004;-89
2022/04/21 08:50:48;;;;;;;8.70;4.18;;;14.70;76.90;;;;;;6186221;23;20005;-89
2022/04/21 08:53:16;;;;;;;4.30;3.90;;;14.70;74.70;;;;;;6185589;23;20005;-88
2022/04/21 08:55:44;;;;;;;7.40;3.78;;;14.80;73.50;;;;;;6159108;23;20599;-87
2022/04/21 08:58:11;;;;;;;7.63;3.85;;;14.80;73.20;;;;;;6185958;23;20440;-89
2022/04/21 09:00:38;;;;;;;4.10;3.53;;;14.90;73.30;;;;;;6185520;23;20037;-89
2022/04/21 09:03:09;;;;;;;4.18;3.70;;;15.00;73.70;;;;;;6159551;23;20008;-88
2022/04/21 09:05:35;;;;;;;5.50;4.10;;;15.00;73.20;;;;;;6186619;23;20309;-87
2022/04/21 09:08:01;;;;;;;4.82;4.40;;;15.00;71.40;;;;;;6159903;23;20084;-87
2022/04/21 09:10:29;;;;;;;5.57;4.05;;;15.00;71.50;;;;;;6186785;23;20004;-89
2022/04/21 09:13:04;;;;;;;9.13;3.97;;;14.90;71.10;;;;;;6187003;23;20005;-87
2022/04/21 09:15:32;;;;;;;7.00;3.80;;;15.00;72.20;;;;;;6186987;23;20008;-87
2022/04/21 09:18:00;;;;;;;7.20;3.15;;;15.00;71.00;;;;;;6186764;23;20332;-88
2022/04/21 09:20:29;;;;;;;6.70;3.38;;;15.00;70.50;;;;;;6160187;23;20009;-88
2022/04/21 09:22:57;;;;;;;6.20;2.72;;;15.10;70.40;;;;;;6186268;23;20016;-89
2022/04/21 09:25:31;;;;;;;7.93;3.50;;;15.20;70.50;;;;;;6185373;23;20463;-85
2022/04/21 09:27:57;;;;;;;4.93;3.63;;;15.10;69.40;;;;;;6183208;23;20048;-84
2022/04/21 09:30:24;;;;;;;6.00;3.50;;;15.20;69.30;;;;;;6157278;23;20012;-87
2022/04/21 09:32:58;;;;;;;3.50;3.20;;;15.30;69.20;;;;;;6156422;23;20009;-86
2022/04/21 09:35:33;;;;;;;3.72;3.20;;;15.40;70.10;;;;;;6157040;23;20064;-86
2022/04/21 09:38:02;;;;;;;6.07;3.30;;;15.40;69.10;;;;;;6184259;23;20005;-75
2022/04/21 09:40:29;;;;;;;3.75;3.20;;;15.60;70.00;;;;;;6153210;23;20015;-74
2022/04/21 09:43:04;;;;;;;4.00;3.25;;;15.60;69.50;;;;;;6181301;23;20001;-75
2022/04/21 09:48:21;;;;;;;6.68;2.95;;;15.50;69.00;;;;;;6182509;23;20064;-74
2022/04/21 09:50:53;;;;;;;3.45;3.08;;;15.50;69.40;;;;;;6184770;23;20429;-74
2022/04/21 09:53:23;;;;;;;3.50;3.20;;;15.70;71.00;;;;;;6185557;23;20080;-74
2022/04/21 09:55:51;;;;;;;8.38;2.97;;;15.80;69.50;;;;;;6159727;23;20008;-86
2022/04/21 09:58:17;;;;;;;3.90;3.40;;;15.90;68.70;;;;;;6186092;23;20008;-87
2022/04/21 10:00:44;;;;;;;3.40;3.10;;;15.90;69.00;;;;;;6159880;23;20440;-87
2022/04/21 10:03:11;;;;;;;8.05;3.00;;;15.90;68.70;;;;;;6186488;23;20333;-87
2022/04/21 10:05:41;;;;;;;4.80;3.50;;;15.90;67.10;;;;;;6159781;23;20005;-85
2022/04/21 10:08:09;;;;;;;3.58;3.28;;;15.80;67.50;;;;;;6160319;23;20011;-87
2022/04/21 10:10:36;;;;;;;3.65;2.92;;;15.80;68.10;;;;;;6186455;23;20313;-87
2022/04/21 10:13:04;;;;;;;5.78;2.97;;;15.90;68.30;;;;;;6186485;23;20001;-88
2022/04/21 10:15:30;;;;;;;3.30;3.10;;;15.90;67.70;;;;;;6186326;23;20008;-87
2022/04/21 10:17:56;;;;;;;3.65;3.30;;;15.80;68.30;;;;;;6186331;23;20013;-87
2022/04/21 10:20:28;;;;;;;6.63;3.60;;;15.90;66.90;;;;;;6159052;23;20016;-87
2022/04/21 10:22:56;;;;;;;8.90;3.53;;;16.00;66.10;;;;;;6186194;23;20069;-88
2022/04/21 10:26:01;;;;;;;2.80;2.63;;;15.90;66.30;;;;;;6186261;23;19997;-87
2022/04/21 10:28:38;;;;;;;5.53;3.15;;;15.90;65.70;;;;;;6159016;23;20083;-87
2022/04/21 10:31:33;;;;;;;2.95;2.75;;;15.90;67.00;;;;;;6157552;23;20020;-87
2022/04/21 10:34:04;;;;;;;7.07;3.20;;;15.90;67.20;;;;;;6184045;23;20459;-87
2022/04/21 10:36:33;;;;;;;6.22;3.30;;;15.80;66.30;;;;;;6184171;23;20029;-87
2022/04/21 10:39:17;;;;;;;4.50;3.38;;;15.70;65.50;;;;;;6185341;23;20005;-87
2022/04/21 10:41:43;;;;;;;2.95;2.75;;;15.50;66.00;;;;;;6185921;23;20064;-87
2022/04/21 10:44:16;;;;;;;4.13;3.72;;;15.50;66.70;;;;;;6185423;23;20004;-87
2022/04/21 10:46:42;;;;;;;3.33;3.03;;;15.40;67.00;;;;;;6159819;23;20452;-87
2022/04/21 10:49:09;;;;;;;3.38;3.17;;;15.30;66.90;;;;;;6159750;23;20001;-88
2022/04/21 10:57:32;;;;;;;4.35;3.78;;;15.20;67.50;;;;;;6130424;23;20100;-87
2022/04/21 11:00:01;;;;;;;7.88;3.45;;;15.10;67.60;;;;;;6185937;23;20437;-87
2022/04/21 11:02:39;;;;;;;5.88;3.90;;;15.20;68.50;;;;;;6159216;23;20108;-87
2022/04/21 11:05:26;;;;;;;13.32;4.65;;;15.10;68.60;;;;;;6186028;23;20048;-87
2022/04/21 11:07:54;;;;;;;6.57;4.43;;;15.00;69.70;;;;;;6185934;23;20437;-87
2022/04/21 11:10:38;;;;;;;5.03;3.75;;;14.90;69.80;;;;;;6159572;23;20005;-87
2022/04/21 11:13:18;;;;;;;4.13;3.80;;;14.90;71.00;;;;;;6159430;23;20009;-87
2022/04/21 11:15:53;;;;;;;7.82;4.75;;;14.80;71.50;;;;;;6185991;23;20092;-87
2022/04/21 11:18:29;;;;;;;8.15;4.28;;;14.80;72.20;;;;;;6186027;23;20350;-87
2022/04/21 11:21:26;;;;;;;5.00;4.25;;;14.80;71.70;;;;;;6185728;23;20088;-87
2022/04/21 11:23:59;;;;;;;4.10;3.70;;;14.80;71.90;;;;;;6146130;23;20016;-87
2022/04/21 11:26:28;;;;;;;3.92;3.65;;;14.80;71.70;;;;;;6159551;23;20005;-87
2022/04/21 11:28:59;;;;;;;3.63;3.33;;;14.80;71.00;;;;;;6159460;23;20001;-87
2022/04/21 11:31:25;;;;;;;18.83;3.80;;;14.80;70.60;;;;;;6159273;23;20091;-87
2022/04/21 11:33:51;;;;;;;3.58;3.33;;;14.60;70.10;;;;;;6185632;23;20224;-86
2022/04/21 11:36:17;;;;;;;3.60;2.97;;;14.60;70.30;;;;;;6185354;23;20001;-86
2022/04/21 11:38:44;;;;;;;5.63;4.10;;;14.50;70.20;;;;;;6184901;23;20012;-87
2022/04/21 11:41:12;;;;;;;4.65;3.22;;;14.50;70.60;;;;;;6185558;23;20008;-87
2022/04/21 11:43:45;;;;;;;3.90;3.47;;;14.60;70.30;;;;;;6159113;23;20064;-87
2022/04/21 11:46:12;;;;;;;5.63;3.70;;;14.60;71.00;;;;;;6185725;23;20080;-87
2022/04/21 11:48:40;;;;;;;5.57;3.33;;;14.60;71.40;;;;;;6185626;23;20459;-87
2022/04/21 11:51:09;;;;;;;8.40;3.58;;;14.60;70.70;;;;;;6185659;23;20040;-87
2022/04/21 11:53:36;;;;;;;3.40;3.10;;;14.70;70.10;;;;;;6185368;23;19997;-87
2022/04/21 11:56:10;;;;;;;3.80;3.38;;;14.70;70.70;;;;;;6159326;23;20005;-87
2022/04/21 11:58:38;;;;;;;3.13;2.88;;;14.70;70.50;;;;;;6185703;23;20001;-87
2022/04/21 12:06:48;;;;;;;4.85;3.20;;;14.80;70.40;;;;;;6185489;23;20016;-87
2022/04/21 12:09:16;;;;;;;4.70;3.53;;;15.00;70.50;;;;;;6185580;23;20002;-87
2022/04/21 12:11:43;;;;;;;4.55;2.60;;;15.00;69.70;;;;;;6185361;23;20418;-87
2022/04/21 12:14:09;;;;;;;4.05;3.05;;;15.10;69.20;;;;;;6185627;23;20027;-87
2022/04/21 12:16:40;;;;;;;3.70;3.40;;;15.20;70.30;;;;;;6184988;23;20009;-88
2022/04/21 12:19:17;;;;;;;6.85;3.85;;;15.30;69.90;;;;;;6157121;23;20285;-75
2022/04/21 12:22:11;;;;;;;5.18;3.97;;;15.20;69.30;;;;;;6156912;23;20009;-75
2022/04/21 12:24:39;;;;;;;8.95;3.25;;;15.30;70.30;;;;;;6102173;23;20005;-75
2022/04/21 12:27:34;;;;;;;7.88;3.97;;;15.30;70.50;;;;;;6183355;23;20059;-75
2022/04/21 12:30:07;;;;;;;3.67;3.38;;;15.30;70.10;;;;;;6183384;23;20013;-75
2022/04/21 12:32:36;;;;;;;4.07;3.70;;;15.30;70.10;;;;;;6183058;23;20145;-75
2022/04/21 12:35:06;;;;;;;7.07;3.80;;;15.30;70.90;;;;;;6156819;23;20009;-74
2022/04/21 12:37:33;;;;;;;4.03;3.65;;;15.30;69.90;;;;;;6183206;23;20306;-75
2022/04/21 12:40:02;;;;;;;3.67;3.38;;;15.30;70.90;;;;;;6183085;23;20433;-75
2022/04/21 12:42:28;;;;;;;4.38;3.50;;;15.30;69.90;;;;;;6183236;23;20001;-75
2022/04/21 12:44:54;;;;;;;6.32;3.83;;;15.30;69.70;;;;;;6156719;23;20005;-75
2022/04/21 12:47:22;;;;;;;7.95;3.72;;;15.20;69.00;;;;;;6183290;23;20333;-75
2022/04/21 12:49:54;;;;;;;5.40;3.92;;;15.20;69.40;;;;;;6157043;23;20016;-75
2022/04/21 12:52:33;;;;;;;3.38;3.08;;;15.20;68.50;;;;;;6183302;23;20430;-75
2022/04/21 12:55:00;;;;;;;4.65;4.13;;;15.10;67.70;;;;;;6156865;23;19997;-75
2022/04/21 12:57:27;;;;;;;7.47;4.15;;;15.10;68.20;;;;;;6183131;23;20001;-75
2022/04/21 12:59:54;;;;;;;7.97;3.80;;;15.20;68.60;;;;;;6183278;23;20088;-75
2022/04/21 13:02:20;;;;;;;5.38;3.22;;;15.20;65.90;;;;;;6183162;23;20052;-75
2022/04/21 13:04:46;;;;;;;4.07;3.25;;;15.30;66.90;;;;;;6156646;23;20013;-75
2022/04/21 13:07:12;;;;;;;6.72;3.17;;;15.30;66.90;;;;;;6182934;23;20072;-75
2022/04/21 13:09:38;;;;;;;4.57;3.30;;;15.40;67.50;;;;;;6178970;23;20045;-75
2022/04/21 13:12:05;;;;;;;3.78;3.42;;;15.40;67.10;;;;;;6152959;23;20009;-74
2022/04/21 13:14:31;;;;;;;5.78;3.83;;;15.40;64.40;;;;;;6180567;23;20269;-74
2022/04/21 13:16:57;;;;;;;4.30;3.63;;;15.40;66.60;;;;;;6179689;23;20001;-75
2022/04/21 13:19:23;;;;;;;3.65;3.35;;;15.40;66.00;;;;;;6179234;23;20133;-75
2022/04/21 13:21:52;;;;;;;3.28;2.92;;;15.50;66.00;;;;;;6180297;23;20084;-75
2022/04/21 13:24:21;;;;;;;3.63;3.33;;;15.50;66.30;;;;;;6179292;23;20008;-75
2022/04/21 13:26:47;;;;;;;7.07;3.50;;;15.50;65.10;;;;;;6179338;23;20001;-75
2022/04/21 13:29:13;;;;;;;4.82;3.30;;;15.50;65.30;;;;;;6184729;23;20001;-74
2022/04/21 13:34:23;;;;;;;5.13;3.15;;;15.50;62.50;;;;;;6184728;23;20055;-74
2022/04/21 13:36:49;;;;;;;4.72;3.90;;;15.40;62.00;;;;;;6184854;23;20436;-75
2022/04/21 13:39:15;;;;;;;5.57;3.25;;;15.40;62.20;;;;;;6184707;23;20445;-74
2022/04/21 13:41:41;;;;;;;6.78;3.88;;;15.30;62.00;;;;;;6184613;23;20001;-75
2022/04/21 13:44:08;;;;;;;7.55;3.22;;;15.40;62.50;;;;;;6158596;23;20431;-75
2022/04/21 13:46:36;;;;;;;4.38;3.42;;;15.30;62.10;;;;;;6158013;23;20173;-75
2022/04/21 13:49:04;;;;;;;4.68;3.75;;;15.30;63.10;;;;;;6184558;23;20004;-75
2022/04/21 13:51:30;;;;;;;4.60;4.20;;;15.40;62.80;;;;;;6184629;23;20102;-75
2022/04/21 13:53:56;;;;;;;3.97;3.58;;;15.30;62.50;;;;;;6184617;23;20025;-75
2022/04/21 13:56:22;;;;;;;3.67;3.30;;;15.30;63.50;;;;;;6158169;23;20009;-74
2022/04/21 13:58:48;;;;;;;4.70;3.97;;;15.40;63.90;;;;;;6158115;23;20084;-75
2022/04/21 14:01:17;;;;;;;7.50;4.85;;;15.40;63.50;;;;;;6184622;23;20008;-75
2022/04/21 14:03:44;;;;;;;6.00;4.63;;;15.30;63.30;;;;;;6184383;23;19997;-75
2022/04/21 14:06:10;;;;;;;6.03;3.80;;;15.30;63.50;;;;;;6184511;23;19997;-74
2022/04/21 14:08:37;;;;;;;4.47;4.07;;;15.30;63.30;;;;;;6184495;23;20382;-74
2022/04/21 14:11:03;;;;;;;4.57;3.75;;;15.30;63.80;;;;;;6184665;23;20072;-74
2022/04/21 14:13:30;;;;;;;6.32;3.80;;;15.30;63.00;;;;;;6184148;23;20008;-75
2022/04/21 14:15:56;;;;;;;3.85;3.55;;;15.30;64.00;;;;;;6157850;23;20468;-75
2022/04/21 14:18:22;;;;;;;3.67;3.38;;;15.30;64.30;;;;;;6184413;23;20337;-75
2022/04/21 14:20:47;;;;;;;4.70;3.45;;;15.30;63.80;;;;;;6184211;23;20016;-74
2022/04/21 14:23:14;;;;;;;11.20;3.50;;;15.40;63.20;;;;;;6184120;23;20021;-75
2022/04/21 14:25:43;;;;;;;3.85;3.55;;;15.40;63.00;;;;;;6184338;23;19997;-74
2022/04/21 14:28:08;;;;;;;4.82;3.85;;;15.40;64.00;;;;;;6184272;23;20005;-75
2022/04/21 14:30:34;;;;;;;4.25;3.22;;;15.40;63.10;;;;;;6155238;23;20013;-75
2022/04/21 14:33:00;;;;;;;6.20;4.15;;;15.40;62.20;;;;;;6178843;23;20029;-75
2022/04/21 14:35:26;;;;;;;5.35;3.55;;;15.30;62.30;;;;;;6152796;23;20416;-75
2022/04/21 14:46:05;;;;;;;8.95;3.83;;;15.40;62.10;;;;;;6178434;23;20091;-75
2022/04/21 14:48:31;;;;;;;7.00;4.10;;;15.40;62.80;;;;;;6179820;23;20080;-75
2022/04/21 14:50:57;;;;;;;5.97;4.00;;;15.30;63.10;;;;;;6177448;23;20377;-75
2022/04/21 14:53:23;;;;;;;9.02;4.38;;;15.30;63.00;;;;;;6178788;23;20440;-75
2022/04/21 14:55:53;;;;;;;5.88;3.67;;;15.20;63.30;;;;;;6178280;23;20490;-75
2022/04/21 14:58:19;;;;;;;6.22;3.38;;;15.20;64.10;;;;;;6178217;23;20378;-75
2022/04/21 15:00:45;;;;;;;3.97;3.50;;;15.20;64.20;;;;;;6178761;23;20005;-75
2022/04/21 15:03:12;;;;;;;3.50;3.17;;;15.20;63.30;;;;;;6178226;23;20032;-75
2022/04/21 15:05:38;;;;;;;3.25;3.05;;;15.10;63.30;;;;;;6178118;23;20001;-75
2022/04/21 15:08:08;;;;;;;4.95;3.70;;;15.20;64.50;;;;;;6178840;23;20467;-75
2022/04/21 15:10:37;;;;;;;5.53;3.25;;;15.10;63.20;;;;;;6151742;23;20045;-75
2022/04/21 15:13:06;;;;;;;5.72;3.78;;;15.00;62.70;;;;;;6150354;23;20056;-76
2022/04/21 15:15:35;;;;;;;3.78;3.35;;;15.10;63.70;;;;;;6178434;23;20001;-75
2022/04/21 15:18:02;;;;;;;3.88;3.58;;;15.00;63.00;;;;;;6178062;23;20005;-74
2022/04/21 15:20:31;;;;;;;4.28;3.80;;;14.90;63.00;;;;;;6178388;23;20014;-75
2022/04/21 15:22:58;;;;;;;4.28;3.45;;;14.90;63.60;;;;;;6152772;23;20041;-75
2022/04/21 15:25:24;;;;;;;3.85;3.55;;;14.90;63.80;;;;;;6152044;23;20064;-75
2022/04/21 15:27:54;;;;;;;5.07;3.75;;;14.90;64.10;;;;;;6151647;23;20128;-75
2022/04/21 15:30:24;;;;;;;3.53;3.30;;;14.90;63.80;;;;;;6152702;23;20012;-75
2022/04/21 15:32:50;;;;;;;8.43;3.40;;;14.90;63.80;;;;;;6178777;23;20445;-74
2022/04/21 15:35:15;;;;;;;3.67;3.38;;;14.90;63.20;;;;;;6178223;23;20047;-74
2022/04/21 15:37:41;;;;;;;7.30;6.63;;;14.80;62.70;;;;;;6152665;23;20009;-75
2022/04/21 15:40:08;;;;;;;8.60;7.43;;;14.90;67.50;;;;;;6151927;23;20417;-75
2022/04/21 15:42:34;;;;;;;5.25;4.45;;;14.90;72.70;;;;;;6151669;23;20005;-75
2022/04/21 15:45:01;;;;;;;5.28;4.03;;;15.00;66.50;;;;;;6178787;23;19998;-76
2022/04/21 15:47:27;;;;;;;3.88;3.47;;;15.00;65.50;;;;;;6175807;23;20336;-76
2022/04/21 15:49:53;;;;;;;3.88;3.58;;;15.00;63.10;;;;;;6150915;23;20048;-76
2022/04/21 15:52:19;;;;;;;3.88;3.50;;;15.10;62.30;;;;;;6177923;23;20064;-76
2022/04/21 16:00:13;;;;;;;4.75;3.35;;;15.00;62.30;;;;;;6178100;23;20376;-76
2022/04/21 16:02:39;;;;;;;4.97;3.67;;;15.00;62.40;;;;;;6151660;23;20001;-75
2022/04/21 16:05:05;;;;;;;3.40;3.03;;;15.00;62.30;;;;;;6179143;23;20029;-76
2022/04/21 16:07:31;;;;;;;6.97;3.58;;;15.00;62.00;;;;;;6177430;23;20012;-76
2022/04/21 16:09:57;;;;;;;3.40;3.10;;;15.00;61.40;;;;;;6177977;23;20005;-75
2022/04/21 16:12:23;;;;;;;6.43;3.30;;;15.00;60.80;;;;;;6152414;23;20464;-76
2022/04/21 16:14:48;;;;;;;5.95;3.55;;;14.90;61.80;;;;;;6178127;23;20033;-76
2022/04/21 16:17:15;;;;;;;4.25;3.17;;;15.00;62.00;;;;;;6152372;23;20064;-76
2022/04/21 16:19:41;;;;;;;4.15;3.22;;;15.00;62.30;;;;;;6178119;23;20112;-75
2022/04/21 16:22:07;;;;;;;6.32;3.63;;;15.00;62.30;;;;;;6177664;23;20033;-75
2022/04/21 16:24:33;;;;;;;4.40;3.53;;;15.00;61.70;;;;;;6179179;23;20001;-76
2022/04/21 16:26:59;;;;;;;3.83;3.42;;;15.00;62.50;;;;;;6176347;23;20392;-76
2022/04/21 16:29:24;;;;;;;6.80;3.03;;;14.90;61.60;;;;;;6151653;23;20005;-76
2022/04/21 16:31:55;;;;;;;6.35;3.72;;;14.90;61.60;;;;;;6178807;23;20306;-75
2022/04/21 16:34:21;;;;;;;4.45;3.60;;;14.80;61.50;;;;;;6178012;23;20048;-75
2022/04/21 16:36:46;;;;;;;8.20;3.47;;;14.80;61.30;;;;;;6178331;23;20064;-76
2022/04/21 16:39:12;;;;;;;3.97;3.30;;;14.80;61.20;;;;;;6178745;23;20009;-76
2022/04/21 16:41:38;;;;;;;4.60;3.58;;;14.80;60.60;;;;;;6179524;23;20008;-76
2022/04/21 16:44:04;;;;;;;4.95;3.42;;;14.80;61.40;;;;;;6154409;23;20005;-77
2022/04/21 16:46:30;;;;;;;6.32;3.58;;;14.80;60.70;;;;;;6180267;23;20361;-76
2022/04/21 16:48:55;;;;;;;3.17;2.88;;;14.80;61.50;;;;;;6179852;23;20730;-76
2022/04/21 16:51:21;;;;;;;4.88;3.53;;;14.80;61.50;;;;;;6181271;23;20056;-76
2022/04/21 16:53:47;;;;;;;3.42;3.10;;;14.90;61.50;;;;;;6153734;23;20441;-76
2022/04/21 16:56:16;;;;;;;6.28;3.72;;;14.90;61.30;;;;;;6180654;23;20028;-76
2022/04/21 16:58:44;;;;;;;4.97;3.30;;;14.90;61.60;;;;;;6153812;23;20020;-76
2022/04/21 17:03:54;;;;;;;7.35;5.05;;;14.90;63.60;;;;;;6153633;23;20100;-76
2022/04/21 17:06:20;;;;;;;5.32;4.50;;;14.80;63.70;;;;;;6179915;23;20021;-76
2022/04/21 17:08:45;;;;;;;8.13;3.78;;;14.70;64.70;;;;;;6154453;23;20005;-77
2022/04/21 17:11:11;;;;;;;13.35;6.85;;;14.60;64.70;;;;;;6152504;23;20009;-76
2022/04/21 17:13:37;;;;;;;9.73;4.80;;;14.60;63.80;;;;;;6180390;23;20027;-76
2022/04/21 17:16:03;;;;;;;9.27;6.85;;;14.60;64.00;;;;;;6154000;23;20019;-76
2022/04/21 17:18:29;;;;;;;11.85;7.85;;;14.60;65.10;;;;;;6179775;23;20076;-76
2022/04/21 17:20:55;;;;;;;6.55;4.90;;;14.60;64.60;;;;;;6180224;23;20024;-76
2022/04/21 17:23:22;;;;;;;4.63;4.20;;;14.50;65.10;;;;;;6178764;23;20017;-76
2022/04/21 17:25:47;;;;;;;8.60;5.30;;;14.60;66.70;;;;;;6153181;23;20064;-76
2022/04/21 17:28:14;;;;;;;7.05;5.05;;;14.60;67.50;;;;;;6154056;23;20377;-76
2022/04/21 17:30:39;;;;;;;6.57;4.47;;;14.60;67.90;;;;;;6179297;23;20005;-76
2022/04/21 17:33:05;;;;;;;7.65;4.53;;;14.60;68.20;;;;;;6179902;23;20077;-76
2022/04/21 17:35:31;;;;;;;5.18;4.65;;;14.60;68.90;;;;;;6153420;23;20005;-76
2022/04/21 17:37:57;;;;;;;6.80;4.55;;;14.60;68.30;;;;;;6153009;23;20001;-76
2022/04/21 17:40:24;;;;;;;4.93;4.22;;;14.60;68.10;;;;;;6180117;23;20047;-76
2022/04/21 17:42:49;;;;;;;8.50;4.28;;;14.60;68.70;;;;;;6178825;23;20189;-76
2022/04/21 17:45:15;;;;;;;5.28;4.28;;;14.60;68.30;;;;;;6179126;23;20001;-76
2022/04/21 17:47:41;;;;;;;5.78;4.50;;;14.60;68.40;;;;;;6153119;23;20088;-76
2022/04/21 17:50:07;;;;;;;8.65;5.35;;;14.60;68.40;;;;;;6152121;23;20012;-76
2022/04/21 17:52:34;;;;;;;9.30;5.30;;;14.50;68.70;;;;;;6178930;23;20016;-75
2022/04/21 17:55:00;;;;;;;5.93;5.20;;;14.50;68.70;;;;;;6178067;23;20353;-76
2022/04/21 17:57:29;;;;;;;7.68;5.25;;;14.50;69.00;;;;;;6178837;23;20001;-76
2022/04/21 17:59:55;;;;;;;8.15;5.45;;;14.50;70.50;;;;;;6181272;23;20068;-76
2022/04/21 18:02:21;;;;;;;8.98;6.03;;;14.50;70.70;;;;;;6153815;23;20032;-76
2022/04/21 18:04:48;;;;;;;9.27;6.82;;;14.50;71.20;;;;;;6180155;23;19989;-75
2022/04/21 18:07:15;;;;;;;9.70;5.22;;;14.50;71.40;;;;;;6181464;23;20348;-75
2022/04/21 18:09:41;;;;;;;5.75;4.80;;;14.40;71.50;;;;;;6180726;23;20080;-76
2022/04/21 18:12:09;;;;;;;13.25;5.53;;;14.40;72.00;;;;;;6181803;23;20447;-76
2022/04/21 18:14:36;;;;;;;7.35;4.25;;;14.40;72.50;;;;;;6182185;23;19997;-76
2022/04/21 18:17:03;;;;;;;9.02;4.15;;;14.40;72.90;;;;;;6182110;23;20334;-75
2022/04/21 18:19:29;;;;;;;8.80;5.28;;;14.40;73.10;;;;;;6181441;23;20376;-75
2022/04/21 18:21:55;;;;;;;6.93;4.97;;;14.30;74.10;;;;;;6181010;23;20009;-75
2022/04/21 18:24:22;;;;;;;8.77;4.93;;;14.30;74.50;;;;;;6154669;23;20009;-76
2022/04/21 18:26:49;;;;;;;16.40;5.72;;;14.30;74.30;;;;;;6182435;23;20435;-76
2022/04/21 18:29:15;;;;;;;5.03;4.43;;;14.30;74.80;;;;;;6181826;23;19997;-75
2022/04/21 18:31:42;;;;;;;10.65;5.65;;;14.30;74.40;;;;;;6179641;23;20012;-75
2022/04/21 18:34:09;;;;;;;6.85;5.00;;;14.20;75.90;;;;;;6154842;23;20031;-76
2022/04/21 18:36:35;;;;;;;8.13;5.28;;;14.20;76.00;;;;;;6155320;23;20092;-76
2022/04/21 18:39:01;;;;;;;10.55;4.53;;;14.20;76.60;;;;;;6155144;23;20091;-75
2022/04/21 18:41:27;;;;;;;5.50;4.88;;;14.20;77.10;;;;;;6181316;23;20001;-75
2022/04/21 18:43:52;;;;;;;13.48;5.15;;;14.20;77.10;;;;;;6181628;23;20072;-75
2022/04/21 18:46:18;;;;;;;13.27;6.00;;;14.20;77.70;;;;;;6181722;23;20512;-76
2022/04/21 18:48:44;;;;;;;5.28;4.80;;;14.20;77.70;;;;;;6181256;23;20063;-76
2022/04/21 18:51:14;;;;;;;9.35;5.07;;;14.20;77.50;;;;;;6180604;23;20425;-75
2022/04/21 18:53:44;;;;;;;9.50;5.18;;;14.20;78.60;;;;;;6181489;23;20016;-75
2022/04/21 18:56:13;;;;;;;7.63;4.75;;;14.20;79.00;;;;;;6181366;23;20001;-75
2022/04/21 18:58:42;;;;;;;7.60;4.80;;;14.10;78.80;;;;;;6154917;23;20012;-75
2022/04/21 19:01:10;;;;;;;4.82;4.45;;;14.10;78.80;;;;;;6180718;23;20008;-76
2022/04/21 19:03:36;;;;;;;10.98;4.88;;;14.10;78.70;;;;;;6181691;23;20007;-76
2022/04/21 19:06:03;;;;;;;7.05;5.03;;;14.00;79.10;;;;;;6180650;23;19997;-75
2022/04/21 19:11:15;;;;;;;9.80;5.30;;;14.00;78.80;;;;;;6180648;23;20063;-75
2022/04/21 19:13:41;;;;;;;9.20;5.70;;;14.00;79.20;;;;;;6181798;23;20076;-76
2022/04/21 19:16:07;;;;;;;9.50;5.63;;;14.00;79.30;;;;;;6180852;23;20831;-76
2022/04/21 19:18:33;;;;;;;10.88;4.75;;;14.00;79.50;;;;;;6154763;23;20044;-76
2022/04/21 19:21:07;;;;;;;7.22;5.13;;;14.00;79.70;;;;;;6154267;23;20005;-75
2022/04/21 19:23:39;;;;;;;10.80;4.40;;;14.00;79.80;;;;;;6154096;23;20024;-75
2022/04/21 19:26:06;;;;;;;;;;;13.90;79.60;;;;;;6180301;23;20001;-76
2022/04/21 19:28:32;;;;;;;4.03;3.55;;;13.90;79.10;;;;;;6154568;23;19908;-75
2022/04/21 19:30:59;;;;;;;4.78;4.15;;;13.90;79.80;;;;;;6155236;23;20009;-75
2022/04/21 19:33:25;;;;;;;6.47;4.18;;;13.90;80.40;;;;;;6181171;23;20422;-75
2022/04/21 19:35:52;;;;;;;8.57;4.03;;;13.80;80.40;;;;;;6181072;23;20029;-75
2022/04/21 19:38:18;;;;;;;4.68;3.58;;;13.80;79.70;;;;;;6154479;23;20040;-75
2022/04/21 19:40:45;;;;;;;4.20;3.58;;;13.80;79.70;;;;;;6180545;23;20001;-76
2022/04/21 19:43:10;;;;;;;6.75;3.88;;;13.80;80.00;;;;;;6153269;23;20005;-75
2022/04/21 19:45:38;;;;;;;5.80;4.35;;;13.80;79.80;;;;;;6153396;23;20358;-75
2022/04/21 19:48:04;;;;;;;4.82;4.32;;;13.80;79.70;;;;;;6153102;23;20441;-75
2022/04/21 19:50:30;;;;;;;10.75;9.13;;;13.80;80.10;;;;;;6180555;23;20001;-76
2022/04/21 19:52:56;;;;;;;12.43;10.45;;;13.90;85.00;;;;;;6179594;23;20055;-76
2022/04/21 19:55:22;;;;;;;9.82;8.82;;;14.10;91.50;;;;;;6180546;23;20064;-76
2022/04/21 19:57:48;;;;;;;5.50;4.90;;;14.20;90.60;;;;;;6181303;23;20009;-77
2022/04/21 20:00:15;;;;;;;5.55;4.25;;;14.10;83.80;;;;;;6153503;23;20016;-77
2022/04/21 20:02:41;;;;;;;9.10;4.30;;;14.00;81.90;;;;;;6179147;23;20064;-76
2022/04/21 20:05:07;;;;;;;6.20;4.32;;;13.90;81.60;;;;;;6180132;23;20004;-76
2022/04/21 20:10:17;;;;;;;4.53;4.13;;;13.80;82.10;;;;;;6179652;23;20020;-76
2022/04/21 20:12:43;;;;;;;8.00;3.97;;;13.70;83.80;;;;;;6179202;23;20349;-77
2022/04/21 20:15:11;;;;;;;5.72;3.95;;;13.80;84.30;;;;;;6155081;23;20096;-77
2022/04/21 20:17:38;;;;;;;5.88;4.07;;;13.70;84.50;;;;;;6184219;23;20084;-77
2022/04/21 20:22:50;;;;;;;6.40;4.47;;;13.60;85.20;;;;;;6183061;23;20024;-77
2022/04/21 20:28:01;;;;;;;7.60;5.00;;;13.60;86.70;;;;;;6184031;23;20500;-76
2022/04/21 20:30:29;;;;;;;6.03;5.03;;;13.60;87.40;;;;;;6184459;23;20024;-77
2022/04/21 20:32:55;;;;;;;6.30;5.13;;;13.60;87.40;;;;;;6156790;23;20056;-77
2022/04/21 20:35:21;;;;;;;5.75;5.15;;;13.60;87.60;;;;;;6157781;23;20012;-76
2022/04/21 20:37:47;;;;;;;7.15;5.40;;;13.50;87.90;;;;;;6184238;23;20089;-76
2022/04/21 20:40:15;;;;;;;6.57;5.45;;;13.50;89.10;;;;;;6157133;23;20437;-77
2022/04/21 20:42:41;;;;;;;6.93;5.43;;;13.50;89.20;;;;;;6183840;23;20429;-76
2022/04/21 20:45:07;;;;;;;6.68;5.45;;;13.50;90.00;;;;;;6182670;23;20083;-77
2022/04/21 20:47:33;;;;;;;8.45;5.80;;;13.40;90.30;;;;;;6183175;23;20088;-76
2022/04/21 20:50:00;;;;;;;8.88;6.07;;;13.40;90.60;;;;;;6183864;23;20001;-76
2022/04/21 20:52:26;;;;;;;8.75;5.78;;;13.40;90.80;;;;;;6183364;23;20072;-77
2022/04/21 20:54:52;;;;;;;7.18;5.20;;;13.40;91.00;;;;;;6157125;23;20009;-77
2022/04/21 20:57:18;;;;;;;9.88;5.95;;;13.40;91.10;;;;;;6184786;23;20012;-76
2022/04/21 20:59:45;;;;;;;9.93;6.47;;;13.40;91.00;;;;;;6184476;23;20032;-77
2022/04/21 21:02:11;;;;;;;9.98;6.38;;;13.40;91.00;;;;;;6185107;23;20433;-77